createdAt,value
2019-05-26T00:01:44.694Z,8.91
2019-05-26T00:04:13.129Z,9.10
2019-05-26T00:06:41.633Z,9.18
2019-05-26T00:09:09.863Z,9.18
2019-05-26T00:11:37.998Z,9.13
2019-05-26T00:14:06.217Z,9.11
2019-05-26T00:16:34.310Z,9.08
2019-05-26T00:19:02.592Z,9.07
2019-05-26T00:21:30.723Z,9.06
2019-05-26T00:23:58.817Z,8.96
2019-05-26T00:26:27.003Z,8.93
2019-05-26T00:28:55.102Z,8.91
2019-05-26T00:31:23.271Z,8.89
2019-05-26T00:33:51.451Z,8.84
2019-05-26T00:36:19.653Z,8.80
2019-05-26T00:38:47.779Z,8.76
2019-05-26T00:41:15.935Z,8.75
2019-05-26T00:43:44.051Z,8.71
2019-05-26T00:46:12.165Z,8.72
2019-05-26T00:48:40.258Z,8.67
2019-05-26T00:51:08.473Z,8.62
2019-05-26T00:53:36.713Z,8.63
2019-05-26T00:56:04.848Z,8.59
2019-05-26T00:58:33.007Z,8.56
2019-05-26T01:01:01.136Z,8.53
2019-05-26T01:03:29.522Z,8.47
2019-05-26T01:05:57.701Z,8.47
2019-05-26T01:08:25.795Z,8.44
2019-05-26T01:10:53.943Z,8.45
2019-05-26T01:13:22.090Z,8.44
2019-05-26T01:15:50.274Z,8.43
2019-05-26T01:18:18.521Z,8.29
2019-05-26T01:20:46.615Z,8.04
2019-05-26T01:23:14.767Z,8.20
2019-05-26T01:25:43.589Z,8.33
2019-05-26T01:28:11.771Z,8.33
2019-05-26T01:30:40.339Z,8.35
2019-05-26T01:33:09.145Z,8.32
2019-05-26T01:35:41.271Z,8.28
2019-05-26T01:38:23.059Z,8.24
2019-05-26T01:40:44.300Z,8.21
2019-05-26T01:43:13.605Z,8.20
2019-05-26T01:45:41.737Z,8.16
2019-05-26T01:48:10.493Z,8.11
2019-05-26T01:50:38.625Z,8.08
2019-05-26T01:53:07.527Z,8.09
2019-05-26T01:55:35.719Z,8.05
2019-05-26T01:58:04.186Z,8.02
2019-05-26T02:00:32.372Z,8.01
2019-05-26T02:03:00.528Z,7.99
2019-05-26T02:05:28.707Z,8.00
2019-05-26T02:07:56.860Z,6.75
2019-05-26T02:10:25.153Z,7.99
2019-05-26T02:12:53.380Z,7.96
2019-05-26T02:15:26.476Z,7.93
2019-05-26T02:17:54.663Z,7.89
2019-05-26T02:20:23.065Z,7.91
2019-05-26T02:22:51.236Z,7.91
2019-05-26T02:25:19.868Z,7.92
2019-05-26T02:27:48.123Z,7.91
2019-05-26T02:30:55.633Z,7.86
2019-05-26T02:33:23.761Z,7.86
2019-05-26T02:35:51.850Z,7.80
2019-05-26T02:38:19.940Z,7.85
2019-05-26T02:40:48.029Z,7.90
2019-05-26T02:43:16.248Z,7.84
2019-05-26T02:45:44.399Z,7.60
2019-05-26T02:48:12.531Z,7.26
2019-05-26T02:50:40.662Z,7.55
2019-05-26T02:53:08.859Z,7.63
2019-05-26T02:55:36.961Z,7.72
2019-05-26T02:58:05.154Z,7.20
2019-05-26T03:00:44.306Z,7.00
2019-05-26T03:03:13.467Z,7.10
2019-05-26T03:05:44.377Z,7.13
2019-05-26T03:08:13.044Z,7.20
2019-05-26T03:10:41.805Z,7.03
2019-05-26T03:13:11.410Z,7.00
2019-05-26T03:15:40.873Z,6.82
2019-05-26T03:18:09.673Z,6.82
2019-05-26T03:20:41.517Z,7.02
2019-05-26T03:23:10.255Z,6.91
2019-05-26T03:25:38.639Z,7.20
2019-05-26T03:28:06.893Z,7.57
2019-05-26T03:30:35.019Z,7.37
2019-05-26T03:33:03.182Z,7.47
2019-05-26T03:35:31.349Z,7.46
2019-05-26T03:37:59.486Z,7.40
2019-05-26T03:40:27.660Z,7.34
2019-05-26T03:42:55.795Z,7.63
2019-05-26T03:45:44.961Z,7.53
2019-05-26T03:48:13.128Z,7.38
2019-05-26T03:50:41.258Z,7.49
2019-05-26T03:53:09.424Z,7.50
2019-05-26T03:55:37.564Z,7.51
2019-05-26T03:58:05.686Z,7.35
2019-05-26T04:00:33.856Z,7.49
2019-05-26T04:03:02.127Z,7.40
2019-05-26T04:05:30.238Z,7.69
2019-05-26T04:08:03.751Z,7.52
2019-05-26T04:10:28.213Z,7.61
2019-05-26T04:12:56.389Z,7.43
2019-05-26T04:15:24.594Z,7.28
2019-05-26T04:17:52.893Z,7.25
2019-05-26T04:20:21.040Z,7.23
2019-05-26T04:22:49.142Z,7.21
2019-05-26T04:25:17.293Z,7.37
2019-05-26T04:27:45.389Z,7.30
2019-05-26T04:30:13.667Z,7.43
2019-05-26T04:32:41.841Z,7.31
2019-05-26T04:35:10.162Z,7.27
2019-05-26T04:37:38.991Z,7.34
2019-05-26T04:40:25.098Z,7.49
2019-05-26T04:42:37.107Z,7.48
2019-05-26T04:45:05.209Z,7.59
2019-05-26T04:47:33.361Z,7.81
2019-05-26T04:50:01.503Z,7.91
2019-05-26T04:52:29.713Z,7.99
2019-05-26T04:54:57.831Z,8.06
2019-05-26T04:57:26.100Z,8.15
2019-05-26T04:59:54.210Z,8.21
2019-05-26T05:02:22.384Z,8.28
2019-05-26T05:04:50.516Z,8.33
2019-05-26T05:07:18.698Z,8.41
2019-05-26T05:09:46.917Z,8.53
2019-05-26T05:12:15.176Z,8.63
2019-05-26T05:14:43.337Z,8.68
2019-05-26T05:17:11.477Z,8.74
2019-05-26T05:19:39.633Z,8.85
2019-05-26T05:22:07.709Z,8.90
2019-05-26T05:24:35.862Z,9.00
2019-05-26T05:27:04.134Z,9.08
2019-05-26T05:29:32.266Z,9.20
2019-05-26T05:32:00.372Z,9.33
2019-05-26T05:34:28.525Z,9.46
2019-05-26T05:36:56.636Z,9.61
2019-05-26T05:39:24.808Z,9.73
2019-05-26T05:41:53.091Z,9.87
2019-05-26T05:44:21.284Z,10.05
2019-05-26T05:46:49.430Z,10.19
2019-05-26T05:49:17.605Z,10.44
2019-05-26T05:51:45.752Z,10.67
2019-05-26T05:54:13.878Z,10.86
2019-05-26T05:56:42.055Z,11.21
2019-05-26T05:59:10.386Z,11.39
2019-05-26T06:01:38.684Z,11.60
2019-05-26T06:04:06.844Z,11.89
2019-05-26T06:06:34.979Z,12.18
2019-05-26T06:09:03.190Z,12.20
2019-05-26T06:11:31.371Z,12.29
2019-05-26T06:13:59.516Z,12.41
2019-05-26T06:16:28.170Z,12.53
2019-05-26T06:18:56.366Z,12.63
2019-05-26T06:21:25.108Z,12.48
2019-05-26T06:23:53.319Z,12.65
2019-05-26T06:26:21.552Z,12.79
2019-05-26T06:28:52.309Z,13.11
2019-05-26T06:31:19.594Z,12.99
2019-05-26T06:33:47.826Z,12.99
2019-05-26T06:36:15.982Z,13.06
2019-05-26T06:38:44.188Z,13.40
2019-05-26T06:41:12.356Z,13.68
2019-05-26T06:43:40.605Z,13.81
2019-05-26T06:46:08.755Z,14.13
2019-05-26T06:48:36.866Z,14.12
2019-05-26T06:51:05.195Z,14.09
2019-05-26T06:53:37.164Z,14.14
2019-05-26T06:56:03.661Z,14.23
2019-05-26T06:58:31.788Z,14.35
2019-05-26T07:01:00.045Z,14.44
2019-05-26T07:03:28.306Z,14.52
2019-05-26T07:05:56.438Z,14.57
2019-05-26T07:08:24.574Z,14.59
2019-05-26T07:10:52.772Z,14.82
2019-05-26T07:13:20.924Z,14.69
2019-05-26T07:15:49.053Z,15.21
2019-05-26T07:18:17.222Z,15.54
2019-05-26T07:20:45.432Z,15.81
2019-05-26T07:23:13.704Z,16.13
2019-05-26T07:25:41.864Z,16.17
2019-05-26T07:28:10.157Z,16.17
2019-05-26T07:30:38.449Z,16.23
2019-05-26T07:33:06.639Z,16.56
2019-05-26T07:35:34.755Z,16.58
2019-05-26T07:38:02.929Z,16.57
2019-05-26T07:40:31.122Z,16.27
2019-05-26T07:42:59.339Z,16.48
2019-05-26T07:45:27.514Z,16.48
2019-05-26T07:47:55.790Z,16.51
2019-05-26T07:50:24.053Z,16.18
2019-05-26T07:52:52.249Z,16.45
2019-05-26T07:55:20.503Z,16.99
2019-05-26T07:57:48.653Z,16.69
2019-05-26T08:00:17.031Z,16.95
2019-05-26T08:02:45.174Z,16.84
2019-05-26T08:05:13.457Z,17.47
2019-05-26T08:07:41.597Z,17.33
2019-05-26T08:10:09.890Z,17.32
2019-05-26T08:12:37.995Z,17.03
2019-05-26T08:15:07.746Z,17.22
2019-05-26T08:17:35.912Z,17.03
2019-05-26T08:20:04.516Z,16.86
2019-05-26T08:22:32.723Z,16.76
2019-05-26T08:25:00.955Z,17.33
2019-05-26T08:27:29.134Z,16.74
2019-05-26T08:29:57.313Z,16.59
2019-05-26T08:32:25.531Z,17.35
2019-05-26T08:34:53.817Z,16.70
2019-05-26T08:37:22.047Z,17.00
2019-05-26T08:39:50.181Z,16.70
2019-05-26T08:42:26.939Z,17.36
2019-05-26T08:44:48.274Z,17.13
2019-05-26T08:47:16.440Z,17.45
2019-05-26T08:49:44.554Z,17.25
2019-05-26T08:52:12.695Z,18.37
2019-05-26T08:54:40.894Z,17.46
2019-05-26T08:57:09.263Z,18.32
2019-05-26T08:59:37.449Z,17.81
2019-05-26T09:02:05.621Z,17.94
2019-05-26T09:04:33.738Z,18.30
2019-05-26T09:07:01.832Z,19.48
2019-05-26T09:09:30.016Z,19.22
2019-05-26T09:11:58.174Z,19.17
2019-05-26T09:14:26.313Z,19.33
2019-05-26T09:16:54.480Z,20.09
2019-05-26T09:19:22.659Z,18.29
2019-05-26T09:21:50.911Z,18.52
2019-05-26T09:24:19.024Z,19.86
2019-05-26T09:26:47.212Z,19.62
2019-05-26T09:29:15.433Z,19.94
2019-05-26T09:31:43.720Z,19.98
2019-05-26T09:34:11.860Z,20.80
2019-05-26T09:36:40.093Z,20.98
2019-05-26T09:39:09.094Z,20.60
2019-05-26T09:41:37.349Z,21.04
2019-05-26T09:44:06.617Z,21.57
2019-05-26T09:46:34.893Z,20.33
2019-05-26T09:49:03.060Z,21.69
2019-05-26T09:51:31.251Z,20.12
2019-05-26T09:54:02.011Z,21.16
2019-05-26T09:56:28.363Z,20.97
2019-05-26T09:58:56.727Z,21.45
2019-05-26T10:01:24.966Z,21.82
2019-05-26T10:03:53.133Z,21.88
2019-05-26T10:06:21.414Z,20.77
2019-05-26T10:08:49.712Z,21.43
2019-05-26T10:11:17.937Z,20.49
2019-05-26T10:13:46.221Z,21.30
2019-05-26T10:16:14.499Z,20.40
2019-05-26T10:18:42.762Z,21.37
2019-05-26T10:21:10.888Z,20.85
2019-05-26T10:23:39.084Z,21.42
2019-05-26T10:26:07.278Z,21.47
2019-05-26T10:28:35.508Z,20.14
2019-05-26T10:31:03.835Z,23.72
2019-05-26T10:33:32.025Z,20.16
2019-05-26T10:36:00.195Z,21.98
2019-05-26T10:38:28.413Z,24.46
2019-05-26T10:40:56.544Z,22.18
2019-05-26T10:43:24.718Z,23.60
2019-05-26T10:45:52.957Z,23.12
2019-05-26T10:48:21.118Z,21.08
2019-05-26T10:50:49.339Z,20.67
2019-05-26T10:53:17.555Z,21.46
2019-05-26T10:55:45.823Z,20.06
2019-05-26T10:58:14.019Z,21.60
2019-05-26T11:00:42.227Z,20.66
2019-05-26T11:03:10.465Z,21.29
2019-05-26T11:05:38.621Z,21.57
2019-05-26T11:08:06.895Z,22.70
2019-05-26T11:10:35.067Z,20.91
2019-05-26T11:13:03.369Z,24.70
2019-05-26T11:15:31.601Z,25.66
2019-05-26T11:17:59.814Z,25.77
2019-05-26T11:20:28.203Z,24.62
2019-05-26T11:22:56.409Z,23.13
2019-05-26T11:25:24.567Z,25.65
2019-05-26T11:27:53.489Z,24.71
2019-05-26T11:30:22.066Z,24.55
2019-05-26T11:32:50.268Z,23.55
2019-05-26T11:35:19.215Z,24.38
2019-05-26T11:37:47.435Z,24.48
2019-05-26T11:40:16.819Z,24.48
2019-05-26T11:42:45.379Z,23.85
2019-05-26T11:45:14.269Z,23.43
2019-05-26T11:47:42.508Z,24.17
2019-05-26T11:50:10.982Z,23.88
2019-05-26T11:52:39.327Z,25.22
2019-05-26T11:55:08.129Z,25.13
2019-05-26T11:57:37.280Z,25.66
2019-05-26T12:00:06.915Z,23.51
2019-05-26T12:02:35.078Z,21.46
2019-05-26T12:05:03.369Z,21.30
2019-05-26T12:07:31.895Z,23.50
2019-05-26T12:10:00.194Z,21.86
2019-05-26T12:12:28.427Z,22.11
2019-05-26T12:14:56.889Z,20.91
2019-05-26T12:17:25.088Z,21.06
2019-05-26T12:19:53.717Z,21.54
2019-05-26T12:22:21.954Z,22.40
2019-05-26T12:24:50.146Z,21.84
2019-05-26T12:27:18.298Z,21.68
2019-05-26T12:29:46.542Z,21.63
2019-05-26T12:32:14.783Z,23.61
2019-05-26T12:34:43.168Z,24.67
2019-05-26T12:37:11.378Z,23.79
2019-05-26T12:39:39.693Z,24.21
2019-05-26T12:42:07.900Z,24.46
2019-05-26T12:44:48.616Z,24.75
2019-05-26T12:47:06.101Z,24.71
2019-05-26T12:49:34.375Z,25.24
2019-05-26T12:52:02.582Z,23.97
2019-05-26T12:54:31.106Z,24.58
2019-05-26T12:56:59.306Z,25.00
2019-05-26T12:59:27.446Z,24.08
2019-05-26T13:01:55.735Z,24.54
2019-05-26T13:04:23.872Z,22.47
2019-05-26T13:06:52.097Z,24.41
2019-05-26T13:09:20.255Z,22.90
2019-05-26T13:11:48.642Z,25.34
2019-05-26T13:14:16.806Z,25.96
2019-05-26T13:16:44.976Z,24.53
2019-05-26T13:19:13.193Z,22.00
2019-05-26T13:21:41.370Z,23.18
2019-05-26T13:24:09.580Z,24.77
2019-05-26T13:26:37.789Z,23.49
2019-05-26T13:29:06.053Z,22.95
2019-05-26T13:31:34.210Z,25.40
2019-05-26T13:34:02.455Z,24.41
2019-05-26T13:36:30.586Z,24.15
2019-05-26T13:38:58.859Z,23.97
2019-05-26T13:41:26.987Z,26.52
2019-05-26T13:43:55.262Z,28.35
2019-05-26T13:46:23.474Z,29.26
2019-05-26T13:48:51.655Z,25.96
2019-05-26T13:51:19.886Z,24.18
2019-05-26T13:53:48.115Z,25.38
2019-05-26T13:56:16.295Z,26.36
2019-05-26T13:58:44.464Z,25.12
2019-05-26T14:01:12.970Z,24.17
2019-05-26T14:03:41.209Z,29.10
2019-05-26T14:06:09.442Z,25.95
2019-05-26T14:08:37.630Z,27.49
2019-05-26T14:11:05.806Z,28.40
2019-05-26T14:13:34.103Z,27.57
2019-05-26T14:16:03.308Z,28.40
2019-05-26T14:18:32.029Z,27.91
2019-05-26T14:21:00.212Z,26.88
2019-05-26T14:23:28.356Z,24.57
2019-05-26T14:25:56.607Z,24.93
2019-05-26T14:28:24.797Z,26.32
2019-05-26T14:30:52.954Z,27.18
2019-05-26T14:33:21.250Z,27.04
2019-05-26T14:35:49.475Z,27.68
2019-05-26T14:38:17.695Z,23.31
2019-05-26T14:40:45.872Z,27.23
2019-05-26T14:43:14.077Z,23.86
2019-05-26T14:45:52.825Z,26.07
2019-05-26T14:48:12.176Z,27.08
2019-05-26T14:50:41.192Z,27.48
2019-05-26T14:53:09.493Z,28.17
2019-05-26T14:55:38.090Z,24.19
2019-05-26T14:58:15.573Z,26.29
2019-05-26T15:00:36.344Z,24.75
2019-05-26T15:03:04.527Z,27.68
2019-05-26T15:05:32.759Z,25.91
2019-05-26T15:08:00.943Z,25.16
2019-05-26T15:10:29.154Z,25.52
2019-05-26T15:12:57.325Z,26.56
2019-05-26T15:15:25.521Z,24.20
2019-05-26T15:17:53.754Z,26.46
2019-05-26T15:20:21.932Z,26.48
2019-05-26T15:22:50.129Z,28.49
2019-05-26T15:25:18.398Z,27.16
2019-05-26T15:27:46.867Z,26.07
2019-05-26T15:30:17.040Z,27.81
2019-05-26T15:32:45.290Z,25.94
2019-05-26T15:35:13.469Z,28.05
2019-05-26T15:37:41.719Z,26.08
2019-05-26T15:40:10.080Z,27.77
2019-05-26T15:42:38.207Z,26.37
2019-05-26T15:45:07.043Z,26.77
2019-05-26T15:47:35.251Z,28.59
2019-05-26T15:50:03.467Z,28.39
2019-05-26T15:52:31.770Z,28.92
2019-05-26T15:54:59.954Z,26.89
2019-05-26T15:57:28.265Z,23.88
2019-05-26T15:59:56.382Z,26.22
2019-05-26T16:02:24.600Z,26.34
2019-05-26T16:04:52.779Z,26.48
2019-05-26T16:07:20.985Z,27.03
2019-05-26T16:09:49.135Z,26.16
2019-05-26T16:12:17.289Z,27.31
2019-05-26T16:14:45.441Z,27.16
2019-05-26T16:17:13.654Z,26.26
2019-05-26T16:19:41.883Z,22.60
2019-05-26T16:22:10.106Z,25.72
2019-05-26T16:24:38.318Z,25.98
2019-05-26T16:27:18.828Z,24.04
2019-05-26T16:29:36.443Z,23.09
2019-05-26T16:32:04.633Z,25.15
2019-05-26T16:34:32.821Z,25.76
2019-05-26T16:37:01.184Z,23.91
2019-05-26T16:39:37.062Z,23.64
2019-05-26T16:41:59.254Z,25.51
2019-05-26T16:44:27.760Z,24.16
2019-05-26T16:46:57.089Z,21.61
2019-05-26T16:49:25.444Z,23.40
2019-05-26T16:51:53.720Z,23.56
2019-05-26T16:54:21.923Z,23.61
2019-05-26T16:56:50.059Z,23.83
2019-05-26T16:59:18.347Z,23.02
2019-05-26T17:01:46.448Z,23.78
2019-05-26T17:04:14.658Z,22.73
2019-05-26T17:06:42.887Z,23.75
2019-05-26T17:09:11.429Z,23.05
2019-05-26T17:11:39.634Z,23.72
2019-05-26T17:14:07.829Z,24.40
2019-05-26T17:16:35.952Z,22.47
2019-05-26T17:19:04.118Z,23.78
2019-05-26T17:21:32.353Z,22.47
2019-05-26T17:24:00.528Z,23.11
2019-05-26T17:26:28.816Z,22.98
2019-05-26T17:28:56.951Z,23.48
2019-05-26T17:31:25.140Z,23.74
2019-05-26T17:33:53.357Z,22.56
2019-05-26T17:36:21.572Z,23.28
2019-05-26T17:38:49.788Z,23.31
2019-05-26T17:41:17.891Z,23.15
2019-05-26T17:43:46.087Z,22.11
2019-05-26T17:46:15.244Z,23.21
2019-05-26T17:48:43.653Z,23.54
2019-05-26T17:51:11.847Z,21.60
2019-05-26T17:53:40.014Z,22.31
2019-05-26T17:56:08.184Z,21.73
2019-05-26T17:58:36.392Z,22.46
2019-05-26T18:01:04.704Z,22.46
2019-05-26T18:03:32.917Z,21.34
2019-05-26T18:06:01.168Z,22.54
2019-05-26T18:08:29.371Z,23.08
2019-05-26T18:10:57.704Z,22.85
2019-05-26T18:13:28.213Z,21.57
2019-05-26T18:15:56.370Z,22.94
2019-05-26T18:18:24.596Z,22.65
2019-05-26T18:20:52.852Z,22.70
2019-05-26T18:23:21.060Z,22.04
2019-05-26T18:25:49.217Z,21.45
2019-05-26T18:28:17.445Z,22.28
2019-05-26T18:30:45.633Z,21.89
2019-05-26T18:33:13.905Z,22.69
2019-05-26T18:35:42.071Z,22.80
2019-05-26T18:38:10.238Z,21.95
2019-05-26T18:40:38.376Z,22.11
2019-05-26T18:43:06.570Z,21.60
2019-05-26T18:45:34.873Z,21.70
2019-05-26T18:48:03.933Z,20.86
2019-05-26T18:50:32.251Z,20.67
2019-05-26T18:53:02.092Z,21.59
2019-05-26T18:55:31.472Z,21.23
2019-05-26T18:57:59.615Z,20.65
2019-05-26T19:00:31.022Z,20.51
2019-05-26T19:02:56.792Z,20.30
2019-05-26T19:05:34.524Z,19.58
2019-05-26T19:07:55.325Z,20.79
2019-05-26T19:10:23.620Z,20.63
2019-05-26T19:12:51.824Z,20.28
2019-05-26T19:15:20.118Z,19.23
2019-05-26T19:17:48.318Z,19.85
2019-05-26T19:20:17.419Z,20.24
2019-05-26T19:22:45.666Z,20.40
2019-05-26T19:25:13.848Z,20.30
2019-05-26T19:27:42.044Z,20.64
2019-05-26T19:30:10.943Z,20.15
2019-05-26T19:32:39.410Z,19.57
2019-05-26T19:35:07.733Z,19.62
2019-05-26T19:37:35.887Z,20.26
2019-05-26T19:40:04.549Z,19.66
2019-05-26T19:42:32.734Z,19.66
2019-05-26T19:45:01.019Z,19.73
2019-05-26T19:47:29.315Z,19.61
2019-05-26T19:49:57.567Z,19.56
2019-05-26T19:52:25.708Z,19.74
2019-05-26T19:54:53.917Z,18.81
2019-05-26T19:57:22.251Z,19.01
2019-05-26T19:59:50.411Z,19.24
2019-05-26T20:02:19.149Z,18.82
2019-05-26T20:04:47.546Z,19.00
2019-05-26T20:07:15.703Z,19.02
2019-05-26T20:09:43.944Z,18.90
2019-05-26T20:12:12.066Z,19.40
2019-05-26T20:14:40.216Z,19.14
2019-05-26T20:17:08.445Z,19.60
2019-05-26T20:19:36.749Z,19.01
2019-05-26T20:22:05.165Z,18.49
2019-05-26T20:24:33.617Z,18.69
2019-05-26T20:27:01.854Z,18.60
2019-05-26T20:29:30.101Z,18.60
2019-05-26T20:31:58.290Z,18.72
2019-05-26T20:34:26.675Z,18.63
2019-05-26T20:36:54.845Z,18.72
2019-05-26T20:39:23.253Z,18.67
2019-05-26T20:41:51.387Z,18.74
2019-05-26T20:44:19.695Z,18.47
2019-05-26T20:46:47.846Z,18.42
2019-05-26T20:49:16.048Z,18.64
2019-05-26T20:51:44.265Z,18.59
2019-05-26T20:54:12.501Z,18.90
2019-05-26T20:56:40.781Z,18.88
2019-05-26T20:59:08.925Z,18.55
2019-05-26T21:01:37.215Z,18.76
2019-05-26T21:04:05.514Z,18.77
2019-05-26T21:06:33.712Z,18.53
2019-05-26T21:09:01.915Z,18.81
2019-05-26T21:11:30.132Z,18.21
2019-05-26T21:13:58.275Z,18.43
2019-05-26T21:16:26.502Z,18.42
2019-05-26T21:18:54.675Z,18.26
2019-05-26T21:21:22.842Z,18.35
2019-05-26T21:23:51.012Z,18.33
2019-05-26T21:26:19.161Z,18.41
2019-05-26T21:28:47.378Z,18.40
2019-05-26T21:31:15.596Z,17.89
2019-05-26T21:33:43.851Z,17.71
2019-05-26T21:36:12.010Z,17.87
2019-05-26T21:38:40.236Z,18.06
2019-05-26T21:41:08.377Z,18.16
2019-05-26T21:43:36.545Z,18.05
2019-05-26T21:46:04.714Z,17.83
2019-05-26T21:48:34.799Z,18.04
2019-05-26T21:51:02.856Z,17.84
2019-05-26T21:53:30.994Z,17.69
2019-05-26T21:55:59.172Z,17.72
2019-05-26T21:58:27.376Z,18.15
2019-05-26T22:00:55.667Z,17.78
2019-05-26T22:03:24.857Z,17.81
2019-05-26T22:05:53.086Z,17.76
2019-05-26T22:08:21.250Z,17.98
2019-05-26T22:10:49.383Z,17.75
2019-05-26T22:13:17.478Z,17.71
2019-05-26T22:15:45.657Z,17.58
2019-05-26T22:18:13.810Z,17.51
2019-05-26T22:20:41.924Z,17.47
2019-05-26T22:23:10.033Z,17.53
2019-05-26T22:25:38.166Z,17.46
2019-05-26T22:28:06.288Z,17.41
2019-05-26T22:30:34.466Z,17.41
2019-05-26T22:33:04.002Z,17.41
2019-05-26T22:35:32.285Z,17.46
2019-05-26T22:38:01.720Z,17.45
2019-05-26T22:40:29.826Z,17.38
2019-05-26T22:42:58.019Z,17.36
2019-05-26T22:45:26.141Z,17.33
2019-05-26T22:47:54.287Z,17.11
2019-05-26T22:50:22.509Z,16.99
2019-05-26T22:52:50.638Z,17.03
2019-05-26T22:55:18.783Z,17.19
2019-05-26T22:57:46.957Z,17.09
2019-05-26T23:00:15.549Z,17.03
2019-05-26T23:02:43.729Z,17.06
2019-05-26T23:05:12.305Z,17.03
2019-05-26T23:07:40.487Z,17.10
2019-05-26T23:10:08.935Z,17.09
2019-05-26T23:12:37.151Z,16.94
2019-05-26T23:15:05.738Z,16.97
2019-05-26T23:17:33.861Z,16.95
2019-05-26T23:20:02.014Z,16.80
2019-05-26T23:22:30.795Z,16.91
2019-05-26T23:24:58.982Z,16.80
2019-05-26T23:27:27.089Z,16.92
2019-05-26T23:29:55.261Z,16.96
2019-05-26T23:32:23.345Z,16.90
2019-05-26T23:34:51.464Z,16.72
2019-05-26T23:37:19.790Z,16.61
2019-05-26T23:39:47.966Z,16.46
2019-05-26T23:42:16.090Z,16.55
2019-05-26T23:44:44.273Z,16.54
2019-05-26T23:47:12.451Z,16.54
2019-05-26T23:49:40.829Z,16.69
2019-05-26T23:52:08.931Z,16.56
2019-05-26T23:54:37.116Z,16.60
2019-05-26T23:57:05.227Z,16.59
2019-05-26T23:59:33.358Z,16.76
